createdAt,value
2022-10-19T00:02:07.050Z,81.70
2022-10-19T00:05:09.622Z,81.80
2022-10-19T00:08:11.824Z,81.70
2022-10-19T00:11:14.305Z,81.70
2022-10-19T00:14:22.885Z,81.70
2022-10-19T00:17:25.259Z,81.80
2022-10-19T00:20:27.511Z,81.70
2022-10-19T00:23:29.940Z,81.70
2022-10-19T00:26:32.231Z,81.70
2022-10-19T00:29:35.038Z,81.70
2022-10-19T00:32:37.435Z,81.80
2022-10-19T00:35:42.761Z,81.80
2022-10-19T00:38:44.971Z,81.70
2022-10-19T00:41:47.916Z,81.80
2022-10-19T00:44:50.037Z,81.70
2022-10-19T00:47:52.238Z,81.70
2022-10-19T00:50:56.609Z,81.60
2022-10-19T00:53:59.009Z,81.70
2022-10-19T00:57:01.113Z,81.60
2022-10-19T01:00:07.486Z,81.50
2022-10-19T01:03:11.615Z,81.50
2022-10-19T01:06:15.878Z,81.40
2022-10-19T01:09:18.106Z,81.60
2022-10-19T01:12:59.248Z,81.50
2022-10-19T01:16:50.231Z,81.60
2022-10-19T01:20:28.256Z,81.60
2022-10-19T01:23:55.525Z,81.60
2022-10-19T01:27:27.124Z,81.50
2022-10-19T01:30:42.649Z,81.50
2022-10-19T01:34:02.296Z,82.20
2022-10-19T01:37:17.173Z,81.40
2022-10-19T01:40:31.047Z,81.30
2022-10-19T01:43:42.072Z,81.30
2022-10-19T01:46:54.767Z,81.20
2022-10-19T01:50:11.565Z,81.20
2022-10-19T01:53:16.185Z,81.30
2022-10-19T01:56:22.029Z,81.10
2022-10-19T01:59:24.105Z,81.10
2022-10-19T02:02:28.074Z,81.00
2022-10-19T02:05:32.982Z,81.10
2022-10-19T02:08:44.136Z,81.00
2022-10-19T02:11:53.367Z,81.00
2022-10-19T02:15:01.668Z,81.10
2022-10-19T02:18:07.168Z,81.10
2022-10-19T02:21:09.635Z,80.90
2022-10-19T02:24:11.801Z,80.90
2022-10-19T02:27:14.252Z,80.90
2022-10-19T02:30:19.760Z,80.90
2022-10-19T02:33:21.959Z,80.80
2022-10-19T02:36:24.713Z,80.70
2022-10-19T02:39:26.943Z,80.70
2022-10-19T02:42:52.420Z,80.70
2022-10-19T02:46:10.727Z,80.80
2022-10-19T02:49:13.783Z,80.70
2022-10-19T02:52:15.816Z,80.60
2022-10-19T02:55:18.235Z,80.50
2022-10-19T02:58:20.319Z,80.40
2022-10-19T03:01:22.596Z,80.40
2022-10-19T03:04:24.772Z,80.40
2022-10-19T03:07:27.247Z,80.30
2022-10-19T03:10:29.304Z,80.20
2022-10-19T03:13:31.501Z,80.20
2022-10-19T03:16:33.572Z,80.20
2022-10-19T03:19:36.527Z,80.20
2022-10-19T03:22:38.622Z,80.20
2022-10-19T03:25:40.778Z,80.10
2022-10-19T03:28:43.102Z,80.10
2022-10-19T03:31:45.216Z,80.00
2022-10-19T03:34:47.360Z,80.00
2022-10-19T03:37:49.422Z,80.00
2022-10-19T03:40:51.446Z,79.90
2022-10-19T03:43:53.732Z,79.90
2022-10-19T03:46:55.831Z,80.00
2022-10-19T03:49:57.859Z,79.90
2022-10-19T03:52:59.954Z,80.30
2022-10-19T03:56:08.447Z,79.80
2022-10-19T03:59:15.907Z,79.90
2022-10-19T04:02:18.019Z,79.80
2022-10-19T04:05:20.087Z,79.80
2022-10-19T04:08:22.103Z,79.70
2022-10-19T04:11:27.016Z,79.70
2022-10-19T04:14:33.238Z,79.70
2022-10-19T04:17:41.178Z,79.70
2022-10-19T04:20:43.980Z,79.60
2022-10-19T04:23:46.345Z,79.50
2022-10-19T04:26:53.545Z,79.50
2022-10-19T04:29:55.626Z,79.50
2022-10-19T04:32:57.678Z,79.50
2022-10-19T04:36:04.648Z,79.40
2022-10-19T04:39:07.274Z,79.40
2022-10-19T04:42:09.334Z,79.30
2022-10-19T04:45:11.459Z,79.30
2022-10-19T04:48:15.143Z,79.30
2022-10-19T04:51:18.603Z,79.20
2022-10-19T04:54:20.674Z,79.20
2022-10-19T04:57:22.740Z,79.20
2022-10-19T05:00:24.806Z,79.20
2022-10-19T05:03:26.845Z,79.10
2022-10-19T05:06:30.547Z,79.10
2022-10-19T05:09:32.642Z,79.10
2022-10-19T05:12:35.668Z,79.10
2022-10-19T05:15:37.734Z,79.00
2022-10-19T05:18:40.142Z,79.00
2022-10-19T05:21:42.249Z,79.10
2022-10-19T05:24:44.418Z,78.90
2022-10-19T05:27:51.517Z,79.10
2022-10-19T05:30:53.725Z,79.00
2022-10-19T05:33:56.617Z,79.10
2022-10-19T05:36:59.137Z,79.00
2022-10-19T05:40:01.190Z,78.90
2022-10-19T05:43:03.312Z,78.90
2022-10-19T05:46:08.045Z,78.90
2022-10-19T05:49:11.977Z,78.80
2022-10-19T05:52:14.001Z,78.70
2022-10-19T05:55:16.103Z,78.70
2022-10-19T05:58:18.143Z,78.80
2022-10-19T06:01:20.567Z,78.60
2022-10-19T06:04:22.674Z,78.60
2022-10-19T06:07:24.781Z,78.60
2022-10-19T06:10:26.876Z,78.60
2022-10-19T06:13:28.960Z,78.70
2022-10-19T06:16:32.254Z,78.70
2022-10-19T06:19:34.362Z,78.60
2022-10-19T06:22:36.500Z,78.60
2022-10-19T06:25:38.906Z,78.70
2022-10-19T06:28:42.377Z,78.60
2022-10-19T06:31:45.770Z,78.60
2022-10-19T06:34:47.826Z,78.60
2022-10-19T06:37:49.931Z,78.80
2022-10-19T06:40:51.971Z,78.70
2022-10-19T06:43:55.210Z,78.70
2022-10-19T06:46:57.272Z,78.80
2022-10-19T06:49:59.313Z,79.40
2022-10-19T06:53:01.344Z,78.70
2022-10-19T06:56:06.044Z,78.80
2022-10-19T06:59:08.105Z,78.80
2022-10-19T07:02:13.378Z,78.90
2022-10-19T07:05:15.513Z,78.90
2022-10-19T07:08:17.563Z,78.90
2022-10-19T07:11:22.611Z,79.00
2022-10-19T07:14:24.933Z,79.00
2022-10-19T07:17:26.997Z,79.10
2022-10-19T07:20:29.025Z,79.30
2022-10-19T07:23:33.441Z,79.40
2022-10-19T07:26:35.938Z,79.90
2022-10-19T07:29:37.992Z,79.50
2022-10-19T07:32:44.548Z,79.60
2022-10-19T07:35:49.277Z,79.70
2022-10-19T07:38:51.771Z,79.80
2022-10-19T07:41:53.839Z,79.90
2022-10-19T07:44:56.071Z,80.00
2022-10-19T07:47:59.368Z,80.10
2022-10-19T07:51:03.028Z,80.20
2022-10-19T07:54:05.290Z,80.30
2022-10-19T07:57:07.335Z,80.40
2022-10-19T08:00:10.482Z,81.20
2022-10-19T08:06:37.596Z,80.70
2022-10-19T08:09:52.803Z,80.70
2022-10-19T08:12:55.651Z,80.80
2022-10-19T08:15:57.707Z,80.90
2022-10-19T08:19:07.165Z,80.90
2022-10-19T08:22:09.370Z,81.00
2022-10-19T08:25:11.438Z,80.90
2022-10-19T08:28:13.504Z,80.90
2022-10-19T08:31:18.452Z,80.90
2022-10-19T08:34:20.874Z,80.90
2022-10-19T08:37:39.943Z,80.90
2022-10-19T08:40:45.251Z,80.90
2022-10-19T08:44:14.381Z,81.10
2022-10-19T08:47:43.615Z,81.00
2022-10-19T08:50:47.171Z,81.00
2022-10-19T08:53:57.198Z,81.10
2022-10-19T08:57:15.839Z,81.20
2022-10-19T09:01:00.417Z,81.20
2022-10-19T09:04:14.941Z,81.20
2022-10-19T09:07:28.456Z,81.30
2022-10-19T09:10:35.756Z,81.30
2022-10-19T09:14:00.524Z,81.40
2022-10-19T09:17:13.631Z,81.40
2022-10-19T09:20:20.501Z,81.40
2022-10-19T09:23:32.606Z,81.50
2022-10-19T09:26:58.646Z,81.50
2022-10-19T09:30:07.201Z,81.50
2022-10-19T09:33:18.825Z,81.50
2022-10-19T09:36:27.501Z,81.50
2022-10-19T09:39:35.501Z,81.50
2022-10-19T09:42:38.026Z,81.60
2022-10-19T09:45:55.413Z,81.60
2022-10-19T09:49:01.311Z,81.70
2022-10-19T09:52:03.525Z,81.70
2022-10-19T09:55:14.772Z,82.40
2022-10-19T09:58:19.045Z,81.70
2022-10-19T10:01:43.126Z,81.80
2022-10-19T10:05:15.797Z,81.80
2022-10-19T10:08:22.913Z,82.00
2022-10-19T10:11:27.012Z,82.00
2022-10-19T10:14:30.670Z,82.00
2022-10-19T10:17:32.826Z,82.00
2022-10-19T10:20:35.071Z,82.00
2022-10-19T10:23:37.857Z,82.00
2022-10-19T10:26:55.070Z,82.10
2022-10-19T10:29:57.856Z,82.00
2022-10-19T10:33:13.562Z,82.20
2022-10-19T10:36:42.862Z,82.20
2022-10-19T10:40:12.846Z,82.20
2022-10-19T10:43:34.858Z,82.20
2022-10-19T10:46:58.825Z,82.40
2022-10-19T10:50:06.518Z,82.30
2022-10-19T10:53:32.676Z,82.40
2022-10-19T10:56:35.375Z,82.40
2022-10-19T10:59:56.384Z,82.50
2022-10-19T11:03:22.764Z,82.50
2022-10-19T11:06:26.035Z,82.60
2022-10-19T11:09:43.750Z,82.60
2022-10-19T11:12:51.711Z,82.60
2022-10-19T11:16:01.342Z,82.80
2022-10-19T11:19:39.522Z,82.70
2022-10-19T11:23:01.868Z,82.80
2022-10-19T11:26:35.755Z,82.80
2022-10-19T11:29:58.688Z,82.80
2022-10-19T11:33:54.161Z,82.90
2022-10-19T11:37:29.408Z,83.00
2022-10-19T11:40:45.797Z,82.90
2022-10-19T11:44:05.122Z,83.10
2022-10-19T11:47:07.324Z,83.20
2022-10-19T11:50:22.363Z,83.20
2022-10-19T11:53:51.858Z,83.40
2022-10-19T11:57:04.083Z,83.30
2022-10-19T12:00:15.047Z,83.30
2022-10-19T12:03:26.130Z,83.30
2022-10-19T12:06:40.321Z,83.40
2022-10-19T12:09:51.453Z,83.30
2022-10-19T12:13:05.458Z,83.30
2022-10-19T12:16:10.639Z,83.40
2022-10-19T12:19:21.085Z,83.40
2022-10-19T12:22:28.070Z,83.40
2022-10-19T12:25:30.347Z,83.50
2022-10-19T12:28:36.838Z,83.60
2022-10-19T12:31:39.833Z,83.60
2022-10-19T12:35:04.897Z,83.60
2022-10-19T12:38:25.299Z,83.50
2022-10-19T12:41:37.105Z,83.50
2022-10-19T12:44:58.872Z,83.40
2022-10-19T12:48:12.762Z,83.40
2022-10-19T12:51:16.780Z,83.50
2022-10-19T12:54:23.657Z,83.60
2022-10-19T12:57:30.350Z,83.50
2022-10-19T13:00:38.828Z,83.70
2022-10-19T13:03:44.477Z,83.50
2022-10-19T13:07:10.956Z,83.50
2022-10-19T13:10:21.039Z,83.60
2022-10-19T13:13:47.742Z,83.60
2022-10-19T13:17:05.095Z,83.70
2022-10-19T13:20:19.150Z,83.60
2022-10-19T13:23:27.054Z,83.50
2022-10-19T13:26:34.106Z,83.50
2022-10-19T13:29:40.444Z,83.50
2022-10-19T13:32:45.469Z,83.60
2022-10-19T13:35:48.294Z,83.50
2022-10-19T13:38:56.150Z,84.00
2022-10-19T13:41:59.017Z,84.20
2022-10-19T13:45:01.687Z,83.50
2022-10-19T13:48:21.788Z,83.40
2022-10-19T13:51:26.791Z,83.40
2022-10-19T13:55:06.335Z,83.30
2022-10-19T13:58:27.264Z,83.30
2022-10-19T14:02:20.670Z,83.30
2022-10-19T14:06:11.792Z,83.30
2022-10-19T14:09:25.574Z,83.20
2022-10-19T14:12:30.234Z,83.10
2022-10-19T14:15:34.984Z,83.10
2022-10-19T14:18:37.785Z,83.20
2022-10-19T14:21:41.791Z,83.10
2022-10-19T14:24:43.905Z,83.10
2022-10-19T14:27:47.749Z,83.00
2022-10-19T14:31:20.208Z,83.10
2022-10-19T14:34:22.517Z,83.00
2022-10-19T14:37:26.707Z,83.00
2022-10-19T14:40:34.170Z,82.90
2022-10-19T14:43:36.480Z,82.90
2022-10-19T14:46:38.936Z,82.90
2022-10-19T14:49:41.049Z,82.90
2022-10-19T14:52:43.607Z,82.90
2022-10-19T14:55:46.458Z,82.90
2022-10-19T14:58:55.587Z,82.90
2022-10-19T15:02:01.057Z,82.90
2022-10-19T15:05:06.298Z,82.80
2022-10-19T15:08:15.239Z,82.80
2022-10-19T15:11:41.442Z,82.80
2022-10-19T15:14:44.515Z,82.90
2022-10-19T15:18:01.931Z,82.90
2022-10-19T15:21:14.434Z,82.90
2022-10-19T15:24:28.148Z,82.90
2022-10-19T15:27:39.190Z,82.90
2022-10-19T15:30:41.919Z,82.90
2022-10-19T15:33:47.991Z,82.90
2022-10-19T15:36:58.688Z,82.90
2022-10-19T15:40:13.570Z,82.90
2022-10-19T15:43:30.651Z,82.90
2022-10-19T15:46:43.715Z,82.90
2022-10-19T15:49:45.941Z,82.90
2022-10-19T15:52:48.065Z,82.90
2022-10-19T15:55:52.201Z,82.90
2022-10-19T15:58:57.441Z,83.00
2022-10-19T16:01:59.634Z,82.90
2022-10-19T16:05:01.775Z,83.00
2022-10-19T16:08:08.845Z,82.90
2022-10-19T16:11:14.494Z,83.00
2022-10-19T16:17:39.187Z,83.00
2022-10-19T16:20:42.059Z,83.00
2022-10-19T16:23:44.327Z,83.00
2022-10-19T16:26:46.428Z,83.00
2022-10-19T16:29:48.499Z,83.00
2022-10-19T16:32:50.662Z,83.00
2022-10-19T16:35:52.743Z,83.00
2022-10-19T16:38:55.220Z,83.00
2022-10-19T16:41:57.314Z,82.90
2022-10-19T16:44:59.329Z,83.00
2022-10-19T16:48:01.840Z,82.90
2022-10-19T16:51:06.876Z,83.00
2022-10-19T16:54:11.344Z,83.00
2022-10-19T16:57:13.543Z,83.00
2022-10-19T17:00:15.691Z,82.90
2022-10-19T17:03:17.817Z,82.90
2022-10-19T17:06:20.639Z,82.90
2022-10-19T17:09:40.980Z,82.80
2022-10-19T17:12:44.169Z,82.90
2022-10-19T17:15:46.216Z,82.90
2022-10-19T17:18:49.290Z,82.90
2022-10-19T17:21:51.424Z,82.80
2022-10-19T17:24:55.519Z,82.90
2022-10-19T17:27:57.566Z,82.80
2022-10-19T17:31:07.421Z,82.80
2022-10-19T17:34:09.906Z,82.80
2022-10-19T17:37:12.010Z,82.80
2022-10-19T17:40:14.257Z,82.80
2022-10-19T17:43:16.312Z,82.70
2022-10-19T17:46:23.961Z,82.70
2022-10-19T17:49:26.048Z,82.80
2022-10-19T17:52:28.132Z,82.70
2022-10-19T17:55:30.287Z,82.70
2022-10-19T17:58:36.353Z,82.70
2022-10-19T18:01:41.211Z,82.70
2022-10-19T18:04:43.269Z,82.70
2022-10-19T18:07:45.715Z,82.70
2022-10-19T18:10:47.770Z,82.70
2022-10-19T18:13:51.329Z,82.70
2022-10-19T18:16:53.449Z,82.70
2022-10-19T18:19:55.490Z,82.60
2022-10-19T18:22:57.544Z,82.60
2022-10-19T18:26:04.170Z,82.70
2022-10-19T18:29:16.159Z,82.70
2022-10-19T18:32:18.258Z,82.60
2022-10-19T18:35:20.352Z,82.60
2022-10-19T18:38:22.400Z,82.70
2022-10-19T18:41:24.601Z,82.60
2022-10-19T18:44:28.674Z,82.80
2022-10-19T18:47:32.583Z,82.60
2022-10-19T18:50:34.687Z,82.60
2022-10-19T18:53:37.148Z,82.60
2022-10-19T18:56:39.337Z,82.60
2022-10-19T18:59:42.047Z,82.60
2022-10-19T19:02:46.817Z,82.50
2022-10-19T19:05:49.840Z,82.60
2022-10-19T19:08:54.818Z,82.50
2022-10-19T19:11:58.364Z,82.60
2022-10-19T19:15:00.538Z,82.60
2022-10-19T19:18:02.682Z,82.50
2022-10-19T19:21:13.984Z,82.50
2022-10-19T19:24:22.059Z,82.60
2022-10-19T19:27:28.334Z,82.50
2022-10-19T19:30:33.608Z,82.60
2022-10-19T19:33:35.871Z,82.50
2022-10-19T19:40:01.936Z,82.60
2022-10-19T19:43:04.369Z,82.50
2022-10-19T19:46:12.621Z,82.60
2022-10-19T19:49:15.764Z,82.50
2022-10-19T19:52:18.369Z,82.60
2022-10-19T19:55:20.899Z,82.50
2022-10-19T19:58:23.075Z,82.50
2022-10-19T20:01:25.422Z,82.50
2022-10-19T20:04:27.677Z,82.50
2022-10-19T20:07:29.821Z,82.50
2022-10-19T20:10:32.855Z,82.40
2022-10-19T20:13:35.369Z,82.40
2022-10-19T20:16:37.590Z,82.40
2022-10-19T20:19:39.725Z,82.50
2022-10-19T20:22:46.485Z,82.40
2022-10-19T20:25:49.410Z,82.50
2022-10-19T20:28:51.860Z,82.40
2022-10-19T20:31:53.930Z,82.40
2022-10-19T20:34:56.003Z,82.50
2022-10-19T20:37:58.644Z,82.50
2022-10-19T20:41:07.031Z,82.50
2022-10-19T20:44:10.235Z,82.50
2022-10-19T20:47:12.563Z,82.50
2022-10-19T20:50:16.102Z,82.50
2022-10-19T20:53:20.208Z,82.50
2022-10-19T20:56:28.348Z,82.50
2022-10-19T20:59:31.680Z,82.60
2022-10-19T21:02:33.998Z,82.60
2022-10-19T21:05:38.465Z,82.50
2022-10-19T21:08:40.564Z,82.60
2022-10-19T21:11:44.374Z,82.60
2022-10-19T21:14:46.514Z,82.60
2022-10-19T21:17:48.650Z,82.50
2022-10-19T21:20:50.697Z,82.60
2022-10-19T21:23:56.419Z,82.50
2022-10-19T21:27:01.604Z,82.60
2022-10-19T21:30:04.592Z,82.60
2022-10-19T21:33:06.658Z,82.60
2022-10-19T21:36:09.875Z,82.50
2022-10-19T21:39:12.000Z,82.60
2022-10-19T21:42:14.152Z,82.60
2022-10-19T21:45:29.875Z,82.60
2022-10-19T21:48:33.596Z,82.50
2022-10-19T21:51:43.460Z,82.50
2022-10-19T21:54:45.457Z,82.60
2022-10-19T21:57:47.528Z,82.50
2022-10-19T22:00:49.930Z,82.60
2022-10-19T22:03:56.865Z,82.60
2022-10-19T22:07:00.703Z,82.60
2022-10-19T22:10:02.903Z,82.60
2022-10-19T22:13:04.933Z,82.60
2022-10-19T22:16:13.173Z,82.60
2022-10-19T22:19:15.473Z,82.60
2022-10-19T22:22:17.662Z,82.70
2022-10-19T22:25:20.047Z,82.60
2022-10-19T22:28:22.383Z,82.60
2022-10-19T22:31:25.770Z,82.50
2022-10-19T22:34:27.963Z,82.70
2022-10-19T22:37:30.043Z,82.50
2022-10-19T22:40:32.359Z,82.50
2022-10-19T22:44:30.613Z,82.50
2022-10-19T22:48:47.279Z,82.60
2022-10-19T22:52:57.677Z,82.60
2022-10-19T22:55:59.722Z,82.60
2022-10-19T22:59:03.734Z,82.50
2022-10-19T23:02:05.858Z,82.60
2022-10-19T23:05:08.424Z,82.50
2022-10-19T23:08:10.481Z,82.60
2022-10-19T23:11:12.924Z,82.60
2022-10-19T23:14:15.688Z,82.50
2022-10-19T23:17:17.748Z,82.60
2022-10-19T23:20:19.884Z,82.60
2022-10-19T23:23:22.766Z,82.40
2022-10-19T23:26:25.260Z,82.50
2022-10-19T23:29:27.440Z,82.50
2022-10-19T23:32:29.514Z,82.50
2022-10-19T23:35:31.554Z,82.50
2022-10-19T23:38:34.102Z,82.40
2022-10-19T23:41:36.724Z,82.40
2022-10-19T23:44:38.810Z,82.40
2022-10-19T23:47:40.857Z,82.40
2022-10-19T23:50:43.054Z,82.40
2022-10-19T23:53:47.424Z,82.40
2022-10-19T23:56:49.508Z,82.40
2022-10-19T23:59:51.554Z,82.40
